AirNav   TITAN Aviation Fuels
 
 1631 users online  

22CL Double Tree Farm Airport
Marysville, California, USA

GOING TO MARYSVILLE?


FAA INFORMATION EFFECTIVE 04 NOVEMBER 2021

Location

FAA Identifier: 22CL
Lat/Long: 39-17-59.6080N 121-21-33.8630W
39-17.993467N 121-21.564383W
39.2998911,-121.3594064
(estimated)
Elevation: 550 ft. / 168 m (estimated)
Variation: 16E (1985)
From city: 12 miles NE of MARYSVILLE, CA
Time zone: UTC -8 (UTC -7 during Daylight Saving Time)
Zip code: 95918

Airport Operations

Airport use: Private use. Permission required prior to landing
Activation date: 03/1972
Control tower: no
ARTCC: OAKLAND CENTER
FSS: RANCHO MURIETA FLIGHT SERVICE STATION
Attendance: UNATNDD
Wind indicator: yes
Segmented circle: no

Airport Communications

WX ASOS at MYV (16 nm SW): 118.475 (530-742-0695)
WX ASOS at OVE (17 nm NW): 121.425 (530-533-5792)
WX AWOS-3 at GOO (17 nm E): 121.325 (530-273-0029)

Nearby radio navigation aids

VOR radial/distance  VOR name  Freq  Var
MYVr023/15.6MARYSVILLE VOR/DME110.8016E
ILAr048/34.0WILLIAMS VORTAC114.4018E
MCCr346/38.0MC CLELLAN VOR/DME109.2017E

Airport Services

Airframe service: NONE
Powerplant service: NONE

Runway Information

Runway 13/31

Dimensions: 1600 x 20 ft. / 488 x 6 m
Surface: gravel
RUNWAY 13  RUNWAY 31
Traffic pattern: leftleft
Obstructions: trees plinetrees

Airport Ownership and Management from official FAA records

Ownership: Privately-owned
Owner: ELLIE HUCKINS
PO BOX 10
BROWNS VALLEY, CA 95918
Phone 916-742-7258
Manager: ELLIE HUCKINS
DOUBLE TREE FARM
BROWNS VALLEY, CA 95918
Phone 916-742-7258

Airport Operational Statistics

Aircraft based on the field: 1
Single engine airplanes: 1
    

Additional Remarks

FOR CD CTC NORCAL APCH AT 916-361-6874.

Instrument Procedures

There are no published instrument procedures at 22CL.

Some nearby airports with instrument procedures:

KBAB - Beale Air Force Base (10 nm S)
KMYV - Yuba County Airport (16 nm SW)
KOVE - Oroville Municipal Airport (17 nm NW)
KGOO - Nevada County Airport (17 nm E)
KLHM - Lincoln Regional Airport/Karl Harder Field (23 nm S)
 
Loc | Ops | Rwys | IFR | FBO | Links
Com | Nav | Svcs | Stats | Notes
Area around 22CL (Double Tree Farm Airport)
 
Road maps at: MapQuest Bing Google
 
Aerial photo
No photo
 
Sectional chart

 
Airport distance calculator
Flying to Double Tree Farm Airport? Find the distance to fly.

From to 22CL

Sunrise and sunset
Times for 29-Nov-2021
 Local
(UTC-8)
 Zulu
(UTC)
Morning civil twilight06:3614:36
Sunrise07:0515:05
Sunset16:4200:42
Evening civil twilight17:1201:12

Current date and time
Zulu (UTC)  30-Nov-2021 00:26:18
Local (UTC-8)  29-Nov-2021 16:26:18
 
METAR
KBAB 
10nm S 
292358Z AUTO 34003KT 10SM CLR 18/12 A3009 RMK AO2 SLP193 T01840117 10191 20134 56018 $
KMYV 
15nm SW 
292353Z AUTO 32003KT 10SM CLR 19/11 A3010 RMK AO2 SLP197 T01890111 10206 20139 56018
KOVE 
17nm NW 
292353Z AUTO 00000KT 10SM CLR 19/13 A3012 RMK AO2 SLP200 T01890128 10194 20139 56016
KGOO 
17nm E 
300015Z AUTO 36003KT 10SM CLR 19/01 A3017 RMK A01
TAF
KBAB 
10nm S 
291900Z 2919/0101 31006KT 9999 SKC QNH3010INS BECMG 3003/3004 03006KT 9999 SKC QNH3011INS BECMG 3009/3010 12006KT 9999 SKC QNH3012INS BECMG 3012/3013 VRB06KT 9000 BR SKC QNH3012INS BECMG 3017/3018 32006KT 9999 NSW SKC QNH3009INS TX18/2923Z TN06/3014Z
NOTAMs
Click for the latest NOTAMs
NOTAMs are issued by the DoD/FAA and will open in a separate window not controlled by AirNav.

 

 
 

Would you like to see your business listed on this page?

 If your business provides an interesting product or service to pilots, flight crews, aircraft, or users of the Double Tree Farm Airport, you should consider listing it here.  To start the listing process, click on the button below
 
Add a business
 

Other Pages about Double Tree Farm Airport

Update a link
 
Copyright © AirNav, LLC. All rights reserved. Privacy Policy  Contact